sensor_id;sensor_type;location;lat;lon;timestamp;temperature;humidity
56103;DHT22;41970;48.774;9.280;2023-07-08T00:00:20;22.30;67.90
56103;DHT22;41970;48.774;9.280;2023-07-08T00:02:46;22.30;68.40
56103;DHT22;41970;48.774;9.280;2023-07-08T00:05:14;22.20;68.50
56103;DHT22;41970;48.774;9.280;2023-07-08T00:07:41;22.20;68.80
56103;DHT22;41970;48.774;9.280;2023-07-08T00:10:20;22.10;68.80
56103;DHT22;41970;48.774;9.280;2023-07-08T00:12:49;22.10;68.80
56103;DHT22;41970;48.774;9.280;2023-07-08T00:15:15;22.00;68.00
56103;DHT22;41970;48.774;9.280;2023-07-08T00:17:41;21.90;68.70
56103;DHT22;41970;48.774;9.280;2023-07-08T00:20:35;22.00;69.20
56103;DHT22;41970;48.774;9.280;2023-07-08T00:23:02;22.00;69.60
56103;DHT22;41970;48.774;9.280;2023-07-08T00:25:29;21.90;69.30
56103;DHT22;41970;48.774;9.280;2023-07-08T00:27:55;21.90;69.40
56103;DHT22;41970;48.774;9.280;2023-07-08T00:30:29;21.80;70.00
56103;DHT22;41970;48.774;9.280;2023-07-08T00:32:56;21.80;70.00
56103;DHT22;41970;48.774;9.280;2023-07-08T00:35:43;21.80;70.60
56103;DHT22;41970;48.774;9.280;2023-07-08T00:40:51;21.70;70.50
56103;DHT22;41970;48.774;9.280;2023-07-08T00:43:23;21.70;70.90
56103;DHT22;41970;48.774;9.280;2023-07-08T00:45:53;21.60;71.00
56103;DHT22;41970;48.774;9.280;2023-07-08T00:48:29;21.50;71.00
56103;DHT22;41970;48.774;9.280;2023-07-08T00:50:55;21.50;71.30
56103;DHT22;41970;48.774;9.280;2023-07-08T00:53:28;21.40;71.70
56103;DHT22;41970;48.774;9.280;2023-07-08T00:56:06;21.40;72.20
56103;DHT22;41970;48.774;9.280;2023-07-08T00:58:43;21.40;72.10
56103;DHT22;41970;48.774;9.280;2023-07-08T01:01:10;21.50;72.30
56103;DHT22;41970;48.774;9.280;2023-07-08T01:03:49;21.50;72.40
56103;DHT22;41970;48.774;9.280;2023-07-08T01:06:18;21.40;72.60
56103;DHT22;41970;48.774;9.280;2023-07-08T01:08:46;21.40;72.90
56103;DHT22;41970;48.774;9.280;2023-07-08T01:11:12;21.30;72.80
56103;DHT22;41970;48.774;9.280;2023-07-08T01:13:42;21.30;74.00
56103;DHT22;41970;48.774;9.280;2023-07-08T01:16:10;21.30;73.10
56103;DHT22;41970;48.774;9.280;2023-07-08T01:18:36;21.30;73.00
56103;DHT22;41970;48.774;9.280;2023-07-08T01:21:04;21.30;73.20
56103;DHT22;41970;48.774;9.280;2023-07-08T01:23:34;21.20;73.40
56103;DHT22;41970;48.774;9.280;2023-07-08T01:26:00;21.20;73.40
56103;DHT22;41970;48.774;9.280;2023-07-08T01:28:27;21.10;73.50
56103;DHT22;41970;48.774;9.280;2023-07-08T01:30:54;21.10;73.80
56103;DHT22;41970;48.774;9.280;2023-07-08T01:33:20;21.00;74.00
56103;DHT22;41970;48.774;9.280;2023-07-08T01:35:50;21.00;73.80
56103;DHT22;41970;48.774;9.280;2023-07-08T01:38:18;21.00;73.60
56103;DHT22;41970;48.774;9.280;2023-07-08T01:40:55;20.90;74.10
56103;DHT22;41970;48.774;9.280;2023-07-08T01:43:21;20.80;74.40
56103;DHT22;41970;48.774;9.280;2023-07-08T01:45:48;20.80;74.70
56103;DHT22;41970;48.774;9.280;2023-07-08T01:48:19;20.70;74.00
56103;DHT22;41970;48.774;9.280;2023-07-08T01:50:54;20.70;73.40
56103;DHT22;41970;48.774;9.280;2023-07-08T01:53:27;20.60;74.00
56103;DHT22;41970;48.774;9.280;2023-07-08T01:55:53;20.60;74.20
56103;DHT22;41970;48.774;9.280;2023-07-08T01:58:19;20.40;73.90
56103;DHT22;41970;48.774;9.280;2023-07-08T02:00:45;20.30;74.30
56103;DHT22;41970;48.774;9.280;2023-07-08T02:03:15;20.40;74.90
56103;DHT22;41970;48.774;9.280;2023-07-08T02:05:41;20.50;75.10
56103;DHT22;41970;48.774;9.280;2023-07-08T02:08:07;20.50;75.00
56103;DHT22;41970;48.774;9.280;2023-07-08T02:10:34;20.40;75.20
56103;DHT22;41970;48.774;9.280;2023-07-08T02:13:00;20.30;74.70
56103;DHT22;41970;48.774;9.280;2023-07-08T02:15:26;20.30;75.00
56103;DHT22;41970;48.774;9.280;2023-07-08T02:17:52;20.20;74.80
56103;DHT22;41970;48.774;9.280;2023-07-08T02:20:18;20.10;75.40
56103;DHT22;41970;48.774;9.280;2023-07-08T02:22:44;20.10;75.60
56103;DHT22;41970;48.774;9.280;2023-07-08T02:25:10;20.20;75.20
56103;DHT22;41970;48.774;9.280;2023-07-08T02:27:37;20.20;75.10
56103;DHT22;41970;48.774;9.280;2023-07-08T02:30:02;20.30;75.20
56103;DHT22;41970;48.774;9.280;2023-07-08T02:32:28;20.20;76.00
56103;DHT22;41970;48.774;9.280;2023-07-08T02:34:54;20.10;75.00
56103;DHT22;41970;48.774;9.280;2023-07-08T02:37:20;20.10;75.60
56103;DHT22;41970;48.774;9.280;2023-07-08T02:39:45;20.00;75.80
56103;DHT22;41970;48.774;9.280;2023-07-08T02:42:11;19.90;75.90
56103;DHT22;41970;48.774;9.280;2023-07-08T02:44:37;19.60;76.60
56103;DHT22;41970;48.774;9.280;2023-07-08T02:47:03;19.50;77.20
56103;DHT22;41970;48.774;9.280;2023-07-08T02:49:32;19.40;76.90
56103;DHT22;41970;48.774;9.280;2023-07-08T02:51:57;19.40;77.00
56103;DHT22;41970;48.774;9.280;2023-07-08T02:54:23;19.50;77.30
56103;DHT22;41970;48.774;9.280;2023-07-08T02:56:49;19.60;76.90
56103;DHT22;41970;48.774;9.280;2023-07-08T02:59:14;19.60;77.50
56103;DHT22;41970;48.774;9.280;2023-07-08T03:01:40;19.60;77.70
56103;DHT22;41970;48.774;9.280;2023-07-08T03:04:09;19.60;77.40
56103;DHT22;41970;48.774;9.280;2023-07-08T03:06:40;19.70;77.10
56103;DHT22;41970;48.774;9.280;2023-07-08T03:09:06;19.70;77.10
56103;DHT22;41970;48.774;9.280;2023-07-08T03:11:33;19.70;77.40
56103;DHT22;41970;48.774;9.280;2023-07-08T03:13:59;19.70;77.30
56103;DHT22;41970;48.774;9.280;2023-07-08T03:16:25;19.80;77.40
56103;DHT22;41970;48.774;9.280;2023-07-08T03:18:51;19.70;77.70
56103;DHT22;41970;48.774;9.280;2023-07-08T03:21:18;19.60;77.90
56103;DHT22;41970;48.774;9.280;2023-07-08T03:23:44;19.50;77.40
56103;DHT22;41970;48.774;9.280;2023-07-08T03:26:21;19.50;77.70
56103;DHT22;41970;48.774;9.280;2023-07-08T03:28:48;19.60;76.90
56103;DHT22;41970;48.774;9.280;2023-07-08T03:31:14;19.70;76.80
56103;DHT22;41970;48.774;9.280;2023-07-08T03:33:40;19.80;76.50
56103;DHT22;41970;48.774;9.280;2023-07-08T03:36:15;19.90;77.00
56103;DHT22;41970;48.774;9.280;2023-07-08T03:38:52;20.00;76.60
56103;DHT22;41970;48.774;9.280;2023-07-08T03:41:19;20.00;76.20
56103;DHT22;41970;48.774;9.280;2023-07-08T03:43:44;20.20;76.10
56103;DHT22;41970;48.774;9.280;2023-07-08T03:46:11;20.20;75.90
56103;DHT22;41970;48.774;9.280;2023-07-08T03:48:38;20.20;76.20
56103;DHT22;41970;48.774;9.280;2023-07-08T03:51:04;20.10;75.60
56103;DHT22;41970;48.774;9.280;2023-07-08T03:53:30;20.10;75.90
56103;DHT22;41970;48.774;9.280;2023-07-08T03:55:56;20.10;76.30
56103;DHT22;41970;48.774;9.280;2023-07-08T03:58:21;20.20;75.90
56103;DHT22;41970;48.774;9.280;2023-07-08T04:00:47;20.00;75.50
56103;DHT22;41970;48.774;9.280;2023-07-08T04:03:13;20.10;75.60
56103;DHT22;41970;48.774;9.280;2023-07-08T04:05:38;20.20;76.00
56103;DHT22;41970;48.774;9.280;2023-07-08T04:08:04;20.30;75.70
56103;DHT22;41970;48.774;9.280;2023-07-08T04:10:30;20.20;76.10
56103;DHT22;41970;48.774;9.280;2023-07-08T04:12:56;20.10;76.10
56103;DHT22;41970;48.774;9.280;2023-07-08T04:15:22;20.10;76.40
56103;DHT22;41970;48.774;9.280;2023-07-08T04:17:51;20.10;77.00
56103;DHT22;41970;48.774;9.280;2023-07-08T04:20:18;20.10;77.20
56103;DHT22;41970;48.774;9.280;2023-07-08T04:22:45;20.10;77.50
56103;DHT22;41970;48.774;9.280;2023-07-08T04:25:12;20.00;77.80
56103;DHT22;41970;48.774;9.280;2023-07-08T04:27:39;19.80;77.90
56103;DHT22;41970;48.774;9.280;2023-07-08T04:30:07;19.70;78.70
56103;DHT22;41970;48.774;9.280;2023-07-08T04:32:33;19.60;79.60
56103;DHT22;41970;48.774;9.280;2023-07-08T04:34:58;19.60;79.40
56103;DHT22;41970;48.774;9.280;2023-07-08T04:37:25;19.80;79.60
56103;DHT22;41970;48.774;9.280;2023-07-08T04:39:51;19.80;79.70
56103;DHT22;41970;48.774;9.280;2023-07-08T04:42:17;19.80;79.70
56103;DHT22;41970;48.774;9.280;2023-07-08T04:44:44;19.90;80.50
56103;DHT22;41970;48.774;9.280;2023-07-08T04:47:10;19.90;80.30
56103;DHT22;41970;48.774;9.280;2023-07-08T04:49:39;20.00;80.00
56103;DHT22;41970;48.774;9.280;2023-07-08T04:52:09;20.10;79.20
56103;DHT22;41970;48.774;9.280;2023-07-08T04:54:35;20.10;79.00
56103;DHT22;41970;48.774;9.280;2023-07-08T04:57:01;20.30;80.20
56103;DHT22;41970;48.774;9.280;2023-07-08T04:59:27;20.40;79.70
56103;DHT22;41970;48.774;9.280;2023-07-08T05:01:53;20.50;79.30
56103;DHT22;41970;48.774;9.280;2023-07-08T05:04:20;20.50;79.40
56103;DHT22;41970;48.774;9.280;2023-07-08T05:06:46;20.60;79.20
56103;DHT22;41970;48.774;9.280;2023-07-08T05:09:12;20.70;78.20
56103;DHT22;41970;48.774;9.280;2023-07-08T05:11:39;20.70;77.30
56103;DHT22;41970;48.774;9.280;2023-07-08T05:14:06;20.80;79.10
56103;DHT22;41970;48.774;9.280;2023-07-08T05:16:34;20.80;79.00
56103;DHT22;41970;48.774;9.280;2023-07-08T05:19:00;20.90;79.00
56103;DHT22;41970;48.774;9.280;2023-07-08T05:21:28;21.00;78.90
56103;DHT22;41970;48.774;9.280;2023-07-08T05:23:59;21.10;79.10
56103;DHT22;41970;48.774;9.280;2023-07-08T05:26:24;21.20;78.30
56103;DHT22;41970;48.774;9.280;2023-07-08T05:28:50;21.40;77.90
56103;DHT22;41970;48.774;9.280;2023-07-08T05:31:16;21.60;76.90
56103;DHT22;41970;48.774;9.280;2023-07-08T05:33:42;21.70;75.90
56103;DHT22;41970;48.774;9.280;2023-07-08T05:36:07;21.90;75.30
56103;DHT22;41970;48.774;9.280;2023-07-08T05:38:33;22.00;74.50
56103;DHT22;41970;48.774;9.280;2023-07-08T05:41:00;22.20;74.70
56103;DHT22;41970;48.774;9.280;2023-07-08T05:43:26;22.30;75.20
56103;DHT22;41970;48.774;9.280;2023-07-08T05:45:56;22.30;75.00
56103;DHT22;41970;48.774;9.280;2023-07-08T05:48:22;22.50;75.40
56103;DHT22;41970;48.774;9.280;2023-07-08T05:50:48;22.60;75.30
56103;DHT22;41970;48.774;9.280;2023-07-08T05:53:14;22.60;73.40
56103;DHT22;41970;48.774;9.280;2023-07-08T05:55:40;22.50;75.50
56103;DHT22;41970;48.774;9.280;2023-07-08T05:58:08;22.50;75.60
56103;DHT22;41970;48.774;9.280;2023-07-08T06:00:34;22.40;73.70
56103;DHT22;41970;48.774;9.280;2023-07-08T06:03:00;22.40;73.70
56103;DHT22;41970;48.774;9.280;2023-07-08T06:05:25;22.50;73.80
56103;DHT22;41970;48.774;9.280;2023-07-08T06:07:51;22.70;73.50
56103;DHT22;41970;48.774;9.280;2023-07-08T06:10:17;22.70;73.40
56103;DHT22;41970;48.774;9.280;2023-07-08T06:12:43;22.70;74.20
56103;DHT22;41970;48.774;9.280;2023-07-08T06:15:09;22.80;74.70
56103;DHT22;41970;48.774;9.280;2023-07-08T06:17:34;23.00;75.40
56103;DHT22;41970;48.774;9.280;2023-07-08T06:20:00;23.00;73.70
56103;DHT22;41970;48.774;9.280;2023-07-08T06:22:27;22.90;74.00
56103;DHT22;41970;48.774;9.280;2023-07-08T06:24:53;22.80;74.00
56103;DHT22;41970;48.774;9.280;2023-07-08T06:27:19;22.90;74.30
56103;DHT22;41970;48.774;9.280;2023-07-08T06:29:44;22.80;73.80
56103;DHT22;41970;48.774;9.280;2023-07-08T06:32:10;22.90;73.80
56103;DHT22;41970;48.774;9.280;2023-07-08T06:34:36;23.00;74.50
56103;DHT22;41970;48.774;9.280;2023-07-08T06:37:02;23.00;73.60
56103;DHT22;41970;48.774;9.280;2023-07-08T06:39:27;23.30;74.70
56103;DHT22;41970;48.774;9.280;2023-07-08T06:41:53;23.50;74.10
56103;DHT22;41970;48.774;9.280;2023-07-08T06:44:19;23.60;74.50
56103;DHT22;41970;48.774;9.280;2023-07-08T06:46:45;23.80;73.40
56103;DHT22;41970;48.774;9.280;2023-07-08T06:49:10;23.80;72.60
56103;DHT22;41970;48.774;9.280;2023-07-08T06:51:37;23.80;72.50
56103;DHT22;41970;48.774;9.280;2023-07-08T06:54:03;23.90;73.20
56103;DHT22;41970;48.774;9.280;2023-07-08T06:56:37;24.10;73.20
56103;DHT22;41970;48.774;9.280;2023-07-08T06:59:04;24.20;72.90
56103;DHT22;41970;48.774;9.280;2023-07-08T07:01:30;24.20;73.00
56103;DHT22;41970;48.774;9.280;2023-07-08T07:03:56;24.20;73.90
56103;DHT22;41970;48.774;9.280;2023-07-08T07:06:22;24.10;74.30
56103;DHT22;41970;48.774;9.280;2023-07-08T07:08:48;23.90;75.00
56103;DHT22;41970;48.774;9.280;2023-07-08T07:11:14;23.90;75.10
56103;DHT22;41970;48.774;9.280;2023-07-08T07:13:40;23.80;75.10
56103;DHT22;41970;48.774;9.280;2023-07-08T07:16:06;23.90;75.20
56103;DHT22;41970;48.774;9.280;2023-07-08T07:18:32;23.80;76.70
56103;DHT22;41970;48.774;9.280;2023-07-08T07:20:58;23.80;75.30
56103;DHT22;41970;48.774;9.280;2023-07-08T07:23:24;23.60;75.80
56103;DHT22;41970;48.774;9.280;2023-07-08T07:25:50;23.50;76.30
56103;DHT22;41970;48.774;9.280;2023-07-08T07:28:16;23.50;76.50
56103;DHT22;41970;48.774;9.280;2023-07-08T07:30:44;23.70;76.80
56103;DHT22;41970;48.774;9.280;2023-07-08T07:33:10;23.90;76.80
56103;DHT22;41970;48.774;9.280;2023-07-08T07:35:36;24.10;76.40
56103;DHT22;41970;48.774;9.280;2023-07-08T07:38:01;24.30;76.20
56103;DHT22;41970;48.774;9.280;2023-07-08T07:40:27;24.40;75.80
56103;DHT22;41970;48.774;9.280;2023-07-08T07:42:53;24.50;75.40
56103;DHT22;41970;48.774;9.280;2023-07-08T07:45:18;24.60;75.60
56103;DHT22;41970;48.774;9.280;2023-07-08T07:47:47;24.70;75.60
56103;DHT22;41970;48.774;9.280;2023-07-08T07:50:13;24.90;75.60
56103;DHT22;41970;48.774;9.280;2023-07-08T07:52:39;24.90;75.40
56103;DHT22;41970;48.774;9.280;2023-07-08T07:55:05;25.00;76.20
56103;DHT22;41970;48.774;9.280;2023-07-08T07:57:31;25.10;75.90
56103;DHT22;41970;48.774;9.280;2023-07-08T07:59:57;25.20;75.50
56103;DHT22;41970;48.774;9.280;2023-07-08T08:02:23;25.20;75.10
56103;DHT22;41970;48.774;9.280;2023-07-08T08:04:48;25.30;75.00
56103;DHT22;41970;48.774;9.280;2023-07-08T08:07:14;25.50;74.20
56103;DHT22;41970;48.774;9.280;2023-07-08T08:09:40;25.50;74.00
56103;DHT22;41970;48.774;9.280;2023-07-08T08:12:08;25.70;75.00
56103;DHT22;41970;48.774;9.280;2023-07-08T08:14:35;26.00;73.90
56103;DHT22;41970;48.774;9.280;2023-07-08T08:17:00;26.40;74.00
56103;DHT22;41970;48.774;9.280;2023-07-08T08:19:26;26.50;73.20
56103;DHT22;41970;48.774;9.280;2023-07-08T08:21:52;26.90;72.80
56103;DHT22;41970;48.774;9.280;2023-07-08T08:24:17;27.30;71.60
56103;DHT22;41970;48.774;9.280;2023-07-08T08:26:43;27.40;70.00
56103;DHT22;41970;48.774;9.280;2023-07-08T08:29:09;27.50;70.00
56103;DHT22;41970;48.774;9.280;2023-07-08T08:31:35;27.50;69.80
56103;DHT22;41970;48.774;9.280;2023-07-08T08:34:00;27.40;70.50
56103;DHT22;41970;48.774;9.280;2023-07-08T08:36:26;27.50;70.60
56103;DHT22;41970;48.774;9.280;2023-07-08T08:38:52;27.70;69.50
56103;DHT22;41970;48.774;9.280;2023-07-08T08:41:22;27.50;69.50
56103;DHT22;41970;48.774;9.280;2023-07-08T08:43:54;27.60;69.90
56103;DHT22;41970;48.774;9.280;2023-07-08T08:49:04;27.60;70.00
56103;DHT22;41970;48.774;9.280;2023-07-08T08:51:31;27.20;71.20
56103;DHT22;41970;48.774;9.280;2023-07-08T08:53:58;27.10;70.60
56103;DHT22;41970;48.774;9.280;2023-07-08T08:56:32;27.30;70.50
56103;DHT22;41970;48.774;9.280;2023-07-08T09:01:58;27.20;71.30
56103;DHT22;41970;48.774;9.280;2023-07-08T09:04:29;27.10;71.40
56103;DHT22;41970;48.774;9.280;2023-07-08T09:07:05;27.20;72.20
56103;DHT22;41970;48.774;9.280;2023-07-08T09:09:47;27.40;71.80
56103;DHT22;41970;48.774;9.280;2023-07-08T09:12:25;27.50;70.00
56103;DHT22;41970;48.774;9.280;2023-07-08T09:14:52;27.60;70.30
56103;DHT22;41970;48.774;9.280;2023-07-08T09:17:32;28.00;69.50
56103;DHT22;41970;48.774;9.280;2023-07-08T09:27:42;29.20;68.30
56103;DHT22;41970;48.774;9.280;2023-07-08T09:30:16;29.60;67.20
56103;DHT22;41970;48.774;9.280;2023-07-08T09:32:42;29.90;66.70
56103;DHT22;41970;48.774;9.280;2023-07-08T09:35:12;30.20;65.20
56103;DHT22;41970;48.774;9.280;2023-07-08T09:37:46;30.50;62.20
56103;DHT22;41970;48.774;9.280;2023-07-08T09:40:18;30.30;62.00
56103;DHT22;41970;48.774;9.280;2023-07-08T09:42:49;30.00;62.30
56103;DHT22;41970;48.774;9.280;2023-07-08T09:45:18;30.10;62.80
56103;DHT22;41970;48.774;9.280;2023-07-08T09:47:44;30.00;64.00
56103;DHT22;41970;48.774;9.280;2023-07-08T09:50:29;30.00;63.40
56103;DHT22;41970;48.774;9.280;2023-07-08T09:52:58;29.90;62.90
56103;DHT22;41970;48.774;9.280;2023-07-08T09:55:36;29.80;64.20
56103;DHT22;41970;48.774;9.280;2023-07-08T09:58:03;29.60;64.40
56103;DHT22;41970;48.774;9.280;2023-07-08T10:00:38;29.20;64.80
56103;DHT22;41970;48.774;9.280;2023-07-08T10:03:26;29.00;66.00
56103;DHT22;41970;48.774;9.280;2023-07-08T10:05:55;29.00;66.70
56103;DHT22;41970;48.774;9.280;2023-07-08T10:08:25;29.00;66.30
56103;DHT22;41970;48.774;9.280;2023-07-08T10:16:57;28.60;66.70
56103;DHT22;41970;48.774;9.280;2023-07-08T10:19:23;28.50;67.40
56103;DHT22;41970;48.774;9.280;2023-07-08T10:30:16;28.20;67.60
56103;DHT22;41970;48.774;9.280;2023-07-08T10:38:44;27.90;68.70
56103;DHT22;41970;48.774;9.280;2023-07-08T10:44:05;27.90;67.20
56103;DHT22;41970;48.774;9.280;2023-07-08T10:46:41;27.80;67.50
56103;DHT22;41970;48.774;9.280;2023-07-08T10:55:25;27.90;66.80
56103;DHT22;41970;48.774;9.280;2023-07-08T11:01:04;28.10;66.60
56103;DHT22;41970;48.774;9.280;2023-07-08T11:09:02;28.30;65.30
56103;DHT22;41970;48.774;9.280;2023-07-08T11:11:38;28.50;64.60
56103;DHT22;41970;48.774;9.280;2023-07-08T11:16:55;28.50;65.10
56103;DHT22;41970;48.774;9.280;2023-07-08T11:19:51;28.60;64.70
56103;DHT22;41970;48.774;9.280;2023-07-08T11:22:19;28.70;64.90
56103;DHT22;41970;48.774;9.280;2023-07-08T11:24:50;28.80;64.50
56103;DHT22;41970;48.774;9.280;2023-07-08T11:27:27;29.00;64.90
56103;DHT22;41970;48.774;9.280;2023-07-08T11:32:26;28.90;62.90
56103;DHT22;41970;48.774;9.280;2023-07-08T11:34:53;29.10;62.60
56103;DHT22;41970;48.774;9.280;2023-07-08T11:37:23;29.20;62.90
56103;DHT22;41970;48.774;9.280;2023-07-08T11:40:09;29.20;63.30
56103;DHT22;41970;48.774;9.280;2023-07-08T11:42:44;29.10;62.70
56103;DHT22;41970;48.774;9.280;2023-07-08T11:47:47;29.20;62.30
56103;DHT22;41970;48.774;9.280;2023-07-08T11:53:01;29.30;62.30
56103;DHT22;41970;48.774;9.280;2023-07-08T11:58:07;29.20;62.70
56103;DHT22;41970;48.774;9.280;2023-07-08T12:00:33;29.30;62.50
56103;DHT22;41970;48.774;9.280;2023-07-08T12:03:16;29.40;62.20
56103;DHT22;41970;48.774;9.280;2023-07-08T12:05:44;29.40;62.30
56103;DHT22;41970;48.774;9.280;2023-07-08T12:08:14;29.30;61.90
56103;DHT22;41970;48.774;9.280;2023-07-08T12:10:42;29.50;62.60
56103;DHT22;41970;48.774;9.280;2023-07-08T12:13:14;29.90;62.00
56103;DHT22;41970;48.774;9.280;2023-07-08T12:15:40;30.10;60.90
56103;DHT22;41970;48.774;9.280;2023-07-08T12:18:36;29.90;60.50
56103;DHT22;41970;48.774;9.280;2023-07-08T12:21:03;29.80;60.40
56103;DHT22;41970;48.774;9.280;2023-07-08T12:23:30;29.80;61.30
56103;DHT22;41970;48.774;9.280;2023-07-08T12:25:57;29.70;60.60
56103;DHT22;41970;48.774;9.280;2023-07-08T12:28:24;29.70;60.90
56103;DHT22;41970;48.774;9.280;2023-07-08T12:30:51;30.00;60.90
56103;DHT22;41970;48.774;9.280;2023-07-08T12:33:35;30.00;59.70
56103;DHT22;41970;48.774;9.280;2023-07-08T12:36:03;30.20;59.50
56103;DHT22;41970;48.774;9.280;2023-07-08T12:38:37;30.10;59.90
56103;DHT22;41970;48.774;9.280;2023-07-08T12:41:09;30.00;59.50
56103;DHT22;41970;48.774;9.280;2023-07-08T12:43:35;30.00;59.40
56103;DHT22;41970;48.774;9.280;2023-07-08T12:46:01;30.20;59.60
56103;DHT22;41970;48.774;9.280;2023-07-08T12:48:33;30.40;60.00
56103;DHT22;41970;48.774;9.280;2023-07-08T12:50:59;30.60;59.50
56103;DHT22;41970;48.774;9.280;2023-07-08T12:53:25;30.50;58.70
56103;DHT22;41970;48.774;9.280;2023-07-08T12:55:52;30.60;58.90
56103;DHT22;41970;48.774;9.280;2023-07-08T12:58:25;30.60;58.80
56103;DHT22;41970;48.774;9.280;2023-07-08T13:00:53;30.80;59.20
56103;DHT22;41970;48.774;9.280;2023-07-08T13:03:24;30.90;58.10
56103;DHT22;41970;48.774;9.280;2023-07-08T13:05:53;31.10;59.00
56103;DHT22;41970;48.774;9.280;2023-07-08T13:08:23;31.10;58.30
56103;DHT22;41970;48.774;9.280;2023-07-08T13:10:52;31.40;57.60
56103;DHT22;41970;48.774;9.280;2023-07-08T13:13:34;31.60;57.60
56103;DHT22;41970;48.774;9.280;2023-07-08T13:16:01;31.40;56.90
56103;DHT22;41970;48.774;9.280;2023-07-08T13:18:35;31.10;57.80
56103;DHT22;41970;48.774;9.280;2023-07-08T13:21:03;31.00;57.60
56103;DHT22;41970;48.774;9.280;2023-07-08T13:23:30;31.20;57.90
56103;DHT22;41970;48.774;9.280;2023-07-08T13:25:56;31.40;56.10
56103;DHT22;41970;48.774;9.280;2023-07-08T13:28:35;31.30;56.10
56103;DHT22;41970;48.774;9.280;2023-07-08T13:31:12;31.20;56.50
56103;DHT22;41970;48.774;9.280;2023-07-08T13:33:45;31.10;57.10
56103;DHT22;41970;48.774;9.280;2023-07-08T13:36:13;31.10;57.20
56103;DHT22;41970;48.774;9.280;2023-07-08T13:38:41;31.30;56.80
56103;DHT22;41970;48.774;9.280;2023-07-08T13:41:08;31.40;56.60
56103;DHT22;41970;48.774;9.280;2023-07-08T13:43:37;31.60;55.90
56103;DHT22;41970;48.774;9.280;2023-07-08T13:46:04;31.60;56.70
56103;DHT22;41970;48.774;9.280;2023-07-08T13:48:36;31.40;56.90
56103;DHT22;41970;48.774;9.280;2023-07-08T13:51:11;31.40;55.90
56103;DHT22;41970;48.774;9.280;2023-07-08T13:56:14;31.60;54.90
56103;DHT22;41970;48.774;9.280;2023-07-08T13:58:45;31.90;53.60
56103;DHT22;41970;48.774;9.280;2023-07-08T14:01:17;32.10;54.40
56103;DHT22;41970;48.774;9.280;2023-07-08T14:03:43;32.10;54.40
56103;DHT22;41970;48.774;9.280;2023-07-08T14:06:20;32.20;54.60
56103;DHT22;41970;48.774;9.280;2023-07-08T14:08:46;32.20;55.10
56103;DHT22;41970;48.774;9.280;2023-07-08T14:11:12;31.80;56.00
56103;DHT22;41970;48.774;9.280;2023-07-08T14:13:38;31.70;56.40
56103;DHT22;41970;48.774;9.280;2023-07-08T14:16:19;31.70;56.50
56103;DHT22;41970;48.774;9.280;2023-07-08T14:18:47;31.70;56.00
56103;DHT22;41970;48.774;9.280;2023-07-08T14:21:13;31.70;56.50
56103;DHT22;41970;48.774;9.280;2023-07-08T14:23:38;32.00;56.20
56103;DHT22;41970;48.774;9.280;2023-07-08T14:26:09;32.00;56.00
56103;DHT22;41970;48.774;9.280;2023-07-08T14:28:35;32.10;56.20
56103;DHT22;41970;48.774;9.280;2023-07-08T14:31:01;32.30;56.10
56103;DHT22;41970;48.774;9.280;2023-07-08T14:33:27;32.10;56.00
56103;DHT22;41970;48.774;9.280;2023-07-08T14:35:52;31.90;56.30
56103;DHT22;41970;48.774;9.280;2023-07-08T14:38:18;31.90;56.40
56103;DHT22;41970;48.774;9.280;2023-07-08T14:40:44;31.90;56.40
56103;DHT22;41970;48.774;9.280;2023-07-08T14:43:30;31.80;56.40
56103;DHT22;41970;48.774;9.280;2023-07-08T14:45:59;32.10;56.40
56103;DHT22;41970;48.774;9.280;2023-07-08T14:48:28;32.20;56.10
56103;DHT22;41970;48.774;9.280;2023-07-08T14:50:55;32.20;55.90
56103;DHT22;41970;48.774;9.280;2023-07-08T14:53:21;32.10;55.60
56103;DHT22;41970;48.774;9.280;2023-07-08T14:55:48;32.20;55.40
56103;DHT22;41970;48.774;9.280;2023-07-08T14:58:22;32.50;54.70
56103;DHT22;41970;48.774;9.280;2023-07-08T15:00:50;32.50;55.20
56103;DHT22;41970;48.774;9.280;2023-07-08T15:03:16;32.10;55.80
56103;DHT22;41970;48.774;9.280;2023-07-08T15:05:42;32.00;56.40
56103;DHT22;41970;48.774;9.280;2023-07-08T15:08:08;32.00;56.80
56103;DHT22;41970;48.774;9.280;2023-07-08T15:10:35;31.90;56.60
56103;DHT22;41970;48.774;9.280;2023-07-08T15:13:02;31.90;56.70
56103;DHT22;41970;48.774;9.280;2023-07-08T15:15:33;32.10;56.20
56103;DHT22;41970;48.774;9.280;2023-07-08T15:18:13;32.20;55.80
56103;DHT22;41970;48.774;9.280;2023-07-08T15:20:40;32.50;55.70
56103;DHT22;41970;48.774;9.280;2023-07-08T15:23:07;32.90;55.50
56103;DHT22;41970;48.774;9.280;2023-07-08T15:25:33;33.00;55.10
56103;DHT22;41970;48.774;9.280;2023-07-08T15:28:02;33.20;55.00
56103;DHT22;41970;48.774;9.280;2023-07-08T15:30:29;32.80;55.20
56103;DHT22;41970;48.774;9.280;2023-07-08T15:32:56;32.50;56.00
56103;DHT22;41970;48.774;9.280;2023-07-08T15:35:27;32.20;55.90
56103;DHT22;41970;48.774;9.280;2023-07-08T15:37:56;32.10;56.50
56103;DHT22;41970;48.774;9.280;2023-07-08T15:40:23;32.10;56.40
56103;DHT22;41970;48.774;9.280;2023-07-08T15:42:54;32.20;56.30
56103;DHT22;41970;48.774;9.280;2023-07-08T15:45:39;32.10;56.20
56103;DHT22;41970;48.774;9.280;2023-07-08T15:48:15;32.00;56.60
56103;DHT22;41970;48.774;9.280;2023-07-08T15:50:41;32.00;56.60
56103;DHT22;41970;48.774;9.280;2023-07-08T15:53:07;32.00;55.60
56103;DHT22;41970;48.774;9.280;2023-07-08T15:55:37;32.20;55.40
56103;DHT22;41970;48.774;9.280;2023-07-08T15:58:06;32.40;55.00
56103;DHT22;41970;48.774;9.280;2023-07-08T16:00:37;32.60;55.30
56103;DHT22;41970;48.774;9.280;2023-07-08T16:03:09;32.70;54.60
56103;DHT22;41970;48.774;9.280;2023-07-08T16:05:36;32.40;55.50
56103;DHT22;41970;48.774;9.280;2023-07-08T16:08:02;32.30;55.80
56103;DHT22;41970;48.774;9.280;2023-07-08T16:10:28;32.20;55.60
56103;DHT22;41970;48.774;9.280;2023-07-08T16:12:55;32.10;55.80
56103;DHT22;41970;48.774;9.280;2023-07-08T16:15:31;32.00;55.50
56103;DHT22;41970;48.774;9.280;2023-07-08T16:17:58;32.00;55.40
56103;DHT22;41970;48.774;9.280;2023-07-08T16:20:27;32.20;55.60
56103;DHT22;41970;48.774;9.280;2023-07-08T16:22:53;32.40;55.00
56103;DHT22;41970;48.774;9.280;2023-07-08T16:25:27;32.70;55.30
56103;DHT22;41970;48.774;9.280;2023-07-08T16:27:54;32.50;54.80
56103;DHT22;41970;48.774;9.280;2023-07-08T16:30:21;32.30;55.20
56103;DHT22;41970;48.774;9.280;2023-07-08T16:32:47;32.30;54.70
56103;DHT22;41970;48.774;9.280;2023-07-08T16:35:16;32.50;55.30
56103;DHT22;41970;48.774;9.280;2023-07-08T16:37:43;32.60;54.60
56103;DHT22;41970;48.774;9.280;2023-07-08T16:40:18;32.60;54.20
56103;DHT22;41970;48.774;9.280;2023-07-08T16:42:45;32.60;54.60
56103;DHT22;41970;48.774;9.280;2023-07-08T16:45:13;32.30;54.90
56103;DHT22;41970;48.774;9.280;2023-07-08T16:47:39;32.20;54.90